sensor_id;sensor_type;location;lat;lon;timestamp;pressure;altitude;pressure_sealevel;temperature;humidity
20624;BME280;10471;42.736;23.346;2023-05-06T00:00:24;95702.03;;;9.14;100.00
20624;BME280;10471;42.736;23.346;2023-05-06T00:02:50;95693.03;;;9.11;100.00
20624;BME280;10471;42.736;23.346;2023-05-06T00:05:15;95701.47;;;9.13;100.00
20624;BME280;10471;42.736;23.346;2023-05-06T00:07:43;95690.94;;;9.03;100.00
20624;BME280;10471;42.736;23.346;2023-05-06T00:10:09;95692.72;;;8.97;100.00
20624;BME280;10471;42.736;23.346;2023-05-06T00:12:35;95690.81;;;8.78;100.00
20624;BME280;10471;42.736;23.346;2023-05-06T00:15:01;95695.53;;;8.76;100.00
20624;BME280;10471;42.736;23.346;2023-05-06T00:17:26;95693.97;;;8.80;100.00
20624;BME280;10471;42.736;23.346;2023-05-06T00:19:52;95692.34;;;8.74;100.00
20624;BME280;10471;42.736;23.346;2023-05-06T00:22:17;95687.66;;;8.81;100.00
20624;BME280;10471;42.736;23.346;2023-05-06T00:24:42;95681.59;;;8.70;100.00
20624;BME280;10471;42.736;23.346;2023-05-06T00:27:08;95688.16;;;8.68;100.00
20624;BME280;10471;42.736;23.346;2023-05-06T00:29:33;95699.13;;;8.60;100.00
20624;BME280;10471;42.736;23.346;2023-05-06T00:31:59;95690.75;;;8.63;100.00
20624;BME280;10471;42.736;23.346;2023-05-06T00:34:25;95696.50;;;8.60;100.00
20624;BME280;10471;42.736;23.346;2023-05-06T00:36:50;95694.41;;;8.62;100.00
20624;BME280;10471;42.736;23.346;2023-05-06T00:39:16;95694.97;;;8.69;100.00
20624;BME280;10471;42.736;23.346;2023-05-06T00:41:41;95691.81;;;8.67;100.00
20624;BME280;10471;42.736;23.346;2023-05-06T00:44:07;95693.41;;;8.68;100.00
20624;BME280;10471;42.736;23.346;2023-05-06T00:46:32;95691.81;;;8.67;100.00
20624;BME280;10471;42.736;23.346;2023-05-06T00:48:57;95687.06;;;8.64;100.00
20624;BME280;10471;42.736;23.346;2023-05-06T00:51:23;95688.09;;;8.58;100.00
20624;BME280;10471;42.736;23.346;2023-05-06T00:53:50;95685.69;;;8.56;100.00
20624;BME280;10471;42.736;23.346;2023-05-06T00:56:15;95680.66;;;8.45;100.00
20624;BME280;10471;42.736;23.346;2023-05-06T00:58:43;95679.63;;;8.46;100.00
20624;BME280;10471;42.736;23.346;2023-05-06T01:01:08;95679.63;;;8.46;100.00
20624;BME280;10471;42.736;23.346;2023-05-06T01:03:34;95682.22;;;8.41;100.00
20624;BME280;10471;42.736;23.346;2023-05-06T01:06:18;95684.78;;;8.31;100.00
20624;BME280;10471;42.736;23.346;2023-05-06T01:09:26;95684.44;;;8.23;100.00
20624;BME280;10471;42.736;23.346;2023-05-06T01:14:32;95683.53;;;8.12;100.00
20624;BME280;10471;42.736;23.346;2023-05-06T01:17:03;95674.19;;;8.16;100.00
20624;BME280;10471;42.736;23.346;2023-05-06T01:19:46;95675.25;;;8.20;100.00
20624;BME280;10471;42.736;23.346;2023-05-06T01:22:14;95684.75;;;8.26;100.00
20624;BME280;10471;42.736;23.346;2023-05-06T01:24:41;95674.50;;;8.30;100.00
20624;BME280;10471;42.736;23.346;2023-05-06T01:27:09;95676.91;;;8.31;100.00
20624;BME280;10471;42.736;23.346;2023-05-06T01:29:36;95679.28;;;8.38;100.00
20624;BME280;10471;42.736;23.346;2023-05-06T01:40:25;95674.75;;;8.28;100.00
20624;BME280;10471;42.736;23.346;2023-05-06T01:42:51;95667.41;;;8.25;100.00
20624;BME280;10471;42.736;23.346;2023-05-06T01:45:18;95669.00;;;8.26;100.00
20624;BME280;10471;42.736;23.346;2023-05-06T01:47:45;95671.13;;;8.34;100.00
20624;BME280;10471;42.736;23.346;2023-05-06T01:50:11;95669.09;;;8.41;100.00
20624;BME280;10471;42.736;23.346;2023-05-06T01:52:37;95669.38;;;8.45;100.00
20624;BME280;10471;42.736;23.346;2023-05-06T01:55:02;95662.75;;;8.37;100.00
20624;BME280;10471;42.736;23.346;2023-05-06T01:57:28;95663.28;;;8.39;100.00
20624;BME280;10471;42.736;23.346;2023-05-06T01:59:53;95676.97;;;8.41;100.00
20624;BME280;10471;42.736;23.346;2023-05-06T02:02:19;95670.63;;;8.37;100.00
20624;BME280;10471;42.736;23.346;2023-05-06T02:04:44;95668.25;;;8.36;100.00
20624;BME280;10471;42.736;23.346;2023-05-06T02:07:10;95665.84;;;8.29;100.00
20624;BME280;10471;42.736;23.346;2023-05-06T02:09:35;95663.97;;;8.25;100.00
20624;BME280;10471;42.736;23.346;2023-05-06T02:12:01;95669.19;;;8.20;100.00
20624;BME280;10471;42.736;23.346;2023-05-06T02:14:26;95668.13;;;8.16;100.00
20624;BME280;10471;42.736;23.346;2023-05-06T02:16:51;95670.38;;;8.07;100.00
20624;BME280;10471;42.736;23.346;2023-05-06T02:19:17;95676.63;;;8.01;100.00
20624;BME280;10471;42.736;23.346;2023-05-06T02:21:43;95678.16;;;7.92;100.00
20624;BME280;10471;42.736;23.346;2023-05-06T02:24:08;95681.81;;;7.91;100.00
20624;BME280;10471;42.736;23.346;2023-05-06T02:26:34;95684.59;;;7.80;100.00
20624;BME280;10471;42.736;23.346;2023-05-06T02:28:59;95679.63;;;7.79;100.00
20624;BME280;10471;42.736;23.346;2023-05-06T02:31:24;95674.34;;;7.74;100.00
20624;BME280;10471;42.736;23.346;2023-05-06T02:33:50;95678.38;;;7.60;100.00
20624;BME280;10471;42.736;23.346;2023-05-06T02:36:15;95678.88;;;7.57;100.00
20624;BME280;10471;42.736;23.346;2023-05-06T02:38:40;95671.75;;;7.52;100.00
20624;BME280;10471;42.736;23.346;2023-05-06T02:41:06;95685.38;;;7.49;100.00
20624;BME280;10471;42.736;23.346;2023-05-06T02:43:31;95686.38;;;7.43;100.00
20624;BME280;10471;42.736;23.346;2023-05-06T02:45:57;95686.00;;;7.35;100.00
20624;BME280;10471;42.736;23.346;2023-05-06T02:48:22;95691.25;;;7.35;100.00
20624;BME280;10471;42.736;23.346;2023-05-06T02:50:47;95685.97;;;7.30;100.00
20624;BME280;10471;42.736;23.346;2023-05-06T02:53:13;95685.66;;;7.26;100.00
20624;BME280;10471;42.736;23.346;2023-05-06T02:55:38;95690.84;;;7.21;100.00
20624;BME280;10471;42.736;23.346;2023-05-06T02:58:03;95697.88;;;7.16;100.00
20624;BME280;10471;42.736;23.346;2023-05-06T03:00:29;95693.84;;;7.09;100.00
20624;BME280;10471;42.736;23.346;2023-05-06T03:02:55;95696.94;;;7.06;100.00
20624;BME280;10471;42.736;23.346;2023-05-06T03:05:20;95694.59;;;7.04;100.00
20624;BME280;10471;42.736;23.346;2023-05-06T03:07:46;95702.06;;;6.96;100.00
20624;BME280;10471;42.736;23.346;2023-05-06T03:10:11;95696.47;;;6.87;100.00
20624;BME280;10471;42.736;23.346;2023-05-06T03:12:36;95694.66;;;6.88;100.00
20624;BME280;10471;42.736;23.346;2023-05-06T03:15:02;95696.72;;;6.86;100.00
20624;BME280;10471;42.736;23.346;2023-05-06T03:17:27;95697.53;;;6.86;100.00
20624;BME280;10471;42.736;23.346;2023-05-06T03:19:53;95705.59;;;6.85;100.00
20624;BME280;10471;42.736;23.346;2023-05-06T03:22:18;95707.75;;;6.88;100.00
20624;BME280;10471;42.736;23.346;2023-05-06T03:24:44;95715.94;;;6.91;100.00
20624;BME280;10471;42.736;23.346;2023-05-06T03:27:09;95715.38;;;6.89;100.00
20624;BME280;10471;42.736;23.346;2023-05-06T03:29:34;95718.28;;;6.93;100.00
20624;BME280;10471;42.736;23.346;2023-05-06T03:32:03;95711.78;;;6.95;100.00
20624;BME280;10471;42.736;23.346;2023-05-06T03:34:29;95724.81;;;6.90;100.00
20624;BME280;10471;42.736;23.346;2023-05-06T03:36:55;95712.09;;;6.99;100.00
20624;BME280;10471;42.736;23.346;2023-05-06T03:39:21;95712.75;;;6.89;100.00
20624;BME280;10471;42.736;23.346;2023-05-06T03:41:47;95716.56;;;7.03;100.00
20624;BME280;10471;42.736;23.346;2023-05-06T03:44:12;95715.53;;;7.04;100.00
20624;BME280;10471;42.736;23.346;2023-05-06T03:46:37;95716.41;;;7.10;100.00
20624;BME280;10471;42.736;23.346;2023-05-06T03:49:04;95723.00;;;7.12;100.00
20624;BME280;10471;42.736;23.346;2023-05-06T03:51:30;95721.22;;;7.17;100.00
20624;BME280;10471;42.736;23.346;2023-05-06T03:53:55;95714.22;;;7.23;100.00
20624;BME280;10471;42.736;23.346;2023-05-06T03:56:21;95722.13;;;7.28;100.00
20624;BME280;10471;42.736;23.346;2023-05-06T03:58:47;95733.19;;;7.35;100.00
20624;BME280;10471;42.736;23.346;2023-05-06T04:01:13;95729.34;;;7.42;100.00
20624;BME280;10471;42.736;23.346;2023-05-06T04:03:38;95727.88;;;7.51;100.00
20624;BME280;10471;42.736;23.346;2023-05-06T04:06:04;95737.22;;;7.69;100.00
20624;BME280;10471;42.736;23.346;2023-05-06T04:08:30;95737.28;;;7.74;100.00
20624;BME280;10471;42.736;23.346;2023-05-06T04:10:56;95746.06;;;7.89;100.00
20624;BME280;10471;42.736;23.346;2023-05-06T04:13:22;95741.47;;;8.01;100.00
20624;BME280;10471;42.736;23.346;2023-05-06T04:15:47;95748.13;;;8.13;100.00
20624;BME280;10471;42.736;23.346;2023-05-06T04:18:13;95735.63;;;8.20;100.00
20624;BME280;10471;42.736;23.346;2023-05-06T04:20:45;95737.88;;;8.12;100.00
20624;BME280;10471;42.736;23.346;2023-05-06T04:23:10;95739.72;;;8.11;100.00
20624;BME280;10471;42.736;23.346;2023-05-06T04:25:36;95743.78;;;8.24;100.00
20624;BME280;10471;42.736;23.346;2023-05-06T04:28:02;95737.31;;;8.36;100.00
20624;BME280;10471;42.736;23.346;2023-05-06T04:30:27;95732.91;;;8.47;100.00
20624;BME280;10471;42.736;23.346;2023-05-06T04:32:52;95738.47;;;8.50;100.00
20624;BME280;10471;42.736;23.346;2023-05-06T04:35:18;95741.63;;;8.52;100.00
20624;BME280;10471;42.736;23.346;2023-05-06T04:37:43;95738.28;;;8.66;100.00
20624;BME280;10471;42.736;23.346;2023-05-06T04:40:10;95747.06;;;8.82;100.00
20624;BME280;10471;42.736;23.346;2023-05-06T04:42:36;95750.28;;;8.94;100.00
20624;BME280;10471;42.736;23.346;2023-05-06T04:45:02;95760.91;;;9.13;100.00
20624;BME280;10471;42.736;23.346;2023-05-06T04:47:28;95748.84;;;9.22;100.00
20624;BME280;10471;42.736;23.346;2023-05-06T04:49:53;95755.19;;;9.31;100.00
20624;BME280;10471;42.736;23.346;2023-05-06T04:52:19;95760.97;;;9.33;100.00
20624;BME280;10471;42.736;23.346;2023-05-06T04:54:44;95760.53;;;9.56;100.00
20624;BME280;10471;42.736;23.346;2023-05-06T04:57:09;95760.06;;;9.74;100.00
20624;BME280;10471;42.736;23.346;2023-05-06T04:59:35;95759.75;;;9.66;100.00
20624;BME280;10471;42.736;23.346;2023-05-06T05:02:00;95758.47;;;9.78;100.00
20624;BME280;10471;42.736;23.346;2023-05-06T05:04:26;95767.19;;;9.88;100.00
20624;BME280;10471;42.736;23.346;2023-05-06T05:06:51;95772.25;;;10.00;100.00
20624;BME280;10471;42.736;23.346;2023-05-06T05:09:17;95784.38;;;10.21;100.00
20624;BME280;10471;42.736;23.346;2023-05-06T05:11:42;95779.13;;;10.31;100.00
20624;BME280;10471;42.736;23.346;2023-05-06T05:14:08;95772.53;;;10.28;100.00
20624;BME280;10471;42.736;23.346;2023-05-06T05:16:33;95779.13;;;10.26;100.00
20624;BME280;10471;42.736;23.346;2023-05-06T05:18:58;95782.03;;;10.39;100.00
20624;BME280;10471;42.736;23.346;2023-05-06T05:21:24;95783.88;;;10.63;100.00
20624;BME280;10471;42.736;23.346;2023-05-06T05:23:49;95784.13;;;10.82;100.00
20624;BME280;10471;42.736;23.346;2023-05-06T05:26:15;95779.09;;;10.95;100.00
20624;BME280;10471;42.736;23.346;2023-05-06T05:28:40;95781.16;;;11.03;100.00
20624;BME280;10471;42.736;23.346;2023-05-06T05:31:06;95776.69;;;11.09;100.00
20624;BME280;10471;42.736;23.346;2023-05-06T05:33:31;95783.53;;;11.14;100.00
20624;BME280;10471;42.736;23.346;2023-05-06T05:35:57;95783.75;;;11.23;100.00
20624;BME280;10471;42.736;23.346;2023-05-06T05:38:22;95779.50;;;11.32;100.00
20624;BME280;10471;42.736;23.346;2023-05-06T05:40:48;95774.69;;;11.49;100.00
20624;BME280;10471;42.736;23.346;2023-05-06T05:43:13;95776.28;;;11.55;100.00
20624;BME280;10471;42.736;23.346;2023-05-06T05:45:39;95772.06;;;11.59;100.00
20624;BME280;10471;42.736;23.346;2023-05-06T05:48:04;95780.47;;;11.61;100.00
20624;BME280;10471;42.736;23.346;2023-05-06T05:50:30;95776.19;;;11.70;100.00
20624;BME280;10471;42.736;23.346;2023-05-06T05:52:55;95775.16;;;11.71;100.00
20624;BME280;10471;42.736;23.346;2023-05-06T05:55:20;95787.25;;;11.81;100.00
20624;BME280;10471;42.736;23.346;2023-05-06T05:57:46;95785.06;;;11.93;100.00
20624;BME280;10471;42.736;23.346;2023-05-06T06:00:11;95776.03;;;12.04;100.00
20624;BME280;10471;42.736;23.346;2023-05-06T06:02:37;95781.47;;;12.23;100.00
20624;BME280;10471;42.736;23.346;2023-05-06T06:05:03;95794.91;;;12.26;100.00
20624;BME280;10471;42.736;23.346;2023-05-06T06:07:28;95792.44;;;12.35;100.00
20624;BME280;10471;42.736;23.346;2023-05-06T06:09:54;95791.59;;;12.44;100.00
20624;BME280;10471;42.736;23.346;2023-05-06T06:12:19;95791.03;;;12.52;100.00
20624;BME280;10471;42.736;23.346;2023-05-06T06:14:45;95794.66;;;12.61;100.00
20624;BME280;10471;42.736;23.346;2023-05-06T06:17:15;95791.34;;;12.74;100.00
20624;BME280;10471;42.736;23.346;2023-05-06T06:19:40;95784.41;;;12.83;100.00
20624;BME280;10471;42.736;23.346;2023-05-06T06:22:06;95794.53;;;13.04;100.00
20624;BME280;10471;42.736;23.346;2023-05-06T06:24:31;95788.56;;;13.22;100.00
20624;BME280;10471;42.736;23.346;2023-05-06T06:26:59;95794.75;;;13.36;100.00
20624;BME280;10471;42.736;23.346;2023-05-06T06:29:25;95793.78;;;13.50;100.00
20624;BME280;10471;42.736;23.346;2023-05-06T06:31:51;95789.63;;;13.68;100.00
20624;BME280;10471;42.736;23.346;2023-05-06T06:34:16;95786.47;;;13.84;100.00
20624;BME280;10471;42.736;23.346;2023-05-06T06:36:42;95783.06;;;14.02;100.00
20624;BME280;10471;42.736;23.346;2023-05-06T06:39:10;95782.38;;;14.15;100.00
20624;BME280;10471;42.736;23.346;2023-05-06T06:41:35;95802.28;;;14.31;100.00
20624;BME280;10471;42.736;23.346;2023-05-06T06:44:01;95794.72;;;14.43;100.00
20624;BME280;10471;42.736;23.346;2023-05-06T06:46:26;95796.13;;;14.53;100.00
20624;BME280;10471;42.736;23.346;2023-05-06T06:48:52;95797.56;;;14.64;100.00
20624;BME280;10471;42.736;23.346;2023-05-06T06:51:17;95789.50;;;14.69;100.00
20624;BME280;10471;42.736;23.346;2023-05-06T06:53:42;95792.66;;;14.71;100.00
20624;BME280;10471;42.736;23.346;2023-05-06T06:56:09;95799.09;;;14.65;100.00
20624;BME280;10471;42.736;23.346;2023-05-06T06:58:38;95791.41;;;14.82;100.00
20624;BME280;10471;42.736;23.346;2023-05-06T07:01:04;95786.19;;;14.77;100.00
20624;BME280;10471;42.736;23.346;2023-05-06T07:03:29;95794.88;;;14.83;100.00
20624;BME280;10471;42.736;23.346;2023-05-06T07:05:55;95786.81;;;14.88;100.00
20624;BME280;10471;42.736;23.346;2023-05-06T07:08:20;95801.75;;;14.97;100.00
20624;BME280;10471;42.736;23.346;2023-05-06T07:10:46;95795.28;;;15.03;100.00
20624;BME280;10471;42.736;23.346;2023-05-06T07:13:12;95800.41;;;15.00;100.00
20624;BME280;10471;42.736;23.346;2023-05-06T07:15:37;95802.56;;;14.98;100.00
20624;BME280;10471;42.736;23.346;2023-05-06T07:18:02;95803.75;;;15.05;100.00
20624;BME280;10471;42.736;23.346;2023-05-06T07:20:28;95799.94;;;15.11;100.00
20624;BME280;10471;42.736;23.346;2023-05-06T07:22:53;95804.41;;;15.29;100.00
20624;BME280;10471;42.736;23.346;2023-05-06T07:25:19;95796.78;;;15.41;100.00
20624;BME280;10471;42.736;23.346;2023-05-06T07:27:44;95795.00;;;15.63;100.00
20624;BME280;10471;42.736;23.346;2023-05-06T07:30:10;95800.72;;;15.83;100.00
20624;BME280;10471;42.736;23.346;2023-05-06T07:32:36;95810.22;;;15.98;100.00
20624;BME280;10471;42.736;23.346;2023-05-06T07:35:02;95805.38;;;16.13;100.00
20624;BME280;10471;42.736;23.346;2023-05-06T07:37:27;95803.09;;;16.34;100.00
20624;BME280;10471;42.736;23.346;2023-05-06T07:39:52;95802.59;;;16.45;100.00
20624;BME280;10471;42.736;23.346;2023-05-06T07:42:18;95809.72;;;16.58;100.00
20624;BME280;10471;42.736;23.346;2023-05-06T07:44:43;95806.59;;;16.78;100.00
20624;BME280;10471;42.736;23.346;2023-05-06T07:47:08;95807.06;;;17.02;100.00
20624;BME280;10471;42.736;23.346;2023-05-06T07:49:34;95801.69;;;17.15;100.00
20624;BME280;10471;42.736;23.346;2023-05-06T07:51:59;95802.94;;;17.39;100.00
20624;BME280;10471;42.736;23.346;2023-05-06T07:54:25;95808.03;;;17.66;100.00
20624;BME280;10471;42.736;23.346;2023-05-06T07:56:50;95810.03;;;17.91;100.00
20624;BME280;10471;42.736;23.346;2023-05-06T07:59:16;95805.06;;;18.15;100.00
20624;BME280;10471;42.736;23.346;2023-05-06T08:01:41;95797.75;;;18.45;100.00
20624;BME280;10471;42.736;23.346;2023-05-06T08:04:07;95805.78;;;18.62;99.00
20624;BME280;10471;42.736;23.346;2023-05-06T08:06:32;95801.22;;;18.88;96.71
20624;BME280;10471;42.736;23.346;2023-05-06T08:08:58;95794.88;;;19.01;93.39
20624;BME280;10471;42.736;23.346;2023-05-06T08:11:23;95790.97;;;19.24;92.85
20624;BME280;10471;42.736;23.346;2023-05-06T08:13:49;95794.69;;;19.40;86.72
20624;BME280;10471;42.736;23.346;2023-05-06T08:16:14;95793.25;;;19.51;85.26
20624;BME280;10471;42.736;23.346;2023-05-06T08:18:40;95795.25;;;19.54;86.00
20624;BME280;10471;42.736;23.346;2023-05-06T08:21:06;95789.38;;;19.69;85.38
20624;BME280;10471;42.736;23.346;2023-05-06T08:23:31;95778.59;;;19.57;86.15
20624;BME280;10471;42.736;23.346;2023-05-06T08:25:57;95788.63;;;19.60;83.22
20624;BME280;10471;42.736;23.346;2023-05-06T08:28:23;95779.88;;;19.51;83.64
20624;BME280;10471;42.736;23.346;2023-05-06T08:30:49;95782.34;;;19.18;85.52
20624;BME280;10471;42.736;23.346;2023-05-06T08:33:16;95782.13;;;19.32;85.22
20624;BME280;10471;42.736;23.346;2023-05-06T08:35:41;95782.41;;;19.39;85.11
20624;BME280;10471;42.736;23.346;2023-05-06T08:38:07;95780.91;;;19.21;78.75
20624;BME280;10471;42.736;23.346;2023-05-06T08:40:33;95779.34;;;19.03;82.29
20624;BME280;10471;42.736;23.346;2023-05-06T08:42:59;95771.59;;;19.27;88.11
20624;BME280;10471;42.736;23.346;2023-05-06T08:45:26;95772.81;;;19.38;86.37
20624;BME280;10471;42.736;23.346;2023-05-06T08:47:52;95763.31;;;19.57;89.64
20624;BME280;10471;42.736;23.346;2023-05-06T08:50:17;95760.91;;;19.73;87.07
20624;BME280;10471;42.736;23.346;2023-05-06T08:52:43;95764.00;;;19.74;80.23
20624;BME280;10471;42.736;23.346;2023-05-06T08:55:09;95766.50;;;19.79;81.59
20624;BME280;10471;42.736;23.346;2023-05-06T08:57:35;95766.47;;;19.96;79.29
20624;BME280;10471;42.736;23.346;2023-05-06T09:00:01;95755.91;;;19.91;74.59
20624;BME280;10471;42.736;23.346;2023-05-06T09:02:27;95755.84;;;20.08;76.86
20624;BME280;10471;42.736;23.346;2023-05-06T09:04:54;95762.31;;;20.28;72.74
20624;BME280;10471;42.736;23.346;2023-05-06T09:07:20;95760.22;;;20.33;68.26
20624;BME280;10471;42.736;23.346;2023-05-06T09:09:46;95758.38;;;20.25;69.80
20624;BME280;10471;42.736;23.346;2023-05-06T09:12:12;95744.81;;;20.10;68.88
20624;BME280;10471;42.736;23.346;2023-05-06T09:14:38;95747.53;;;20.01;69.85
20624;BME280;10471;42.736;23.346;2023-05-06T09:17:04;95743.75;;;20.02;74.81
20624;BME280;10471;42.736;23.346;2023-05-06T09:19:30;95741.16;;;20.14;73.57
20624;BME280;10471;42.736;23.346;2023-05-06T09:21:55;95748.63;;;20.29;71.82
20624;BME280;10471;42.736;23.346;2023-05-06T09:24:22;95747.38;;;20.27;71.38
20624;BME280;10471;42.736;23.346;2023-05-06T09:26:49;95741.63;;;20.37;69.12
20624;BME280;10471;42.736;23.346;2023-05-06T09:29:15;95739.78;;;20.49;65.05
20624;BME280;10471;42.736;23.346;2023-05-06T09:31:42;95730.69;;;20.62;64.41
20624;BME280;10471;42.736;23.346;2023-05-06T09:34:08;95728.09;;;20.74;62.29
20624;BME280;10471;42.736;23.346;2023-05-06T09:36:34;95734.88;;;20.92;73.50
20624;BME280;10471;42.736;23.346;2023-05-06T09:39:00;95724.63;;;21.06;63.70
20624;BME280;10471;42.736;23.346;2023-05-06T09:41:25;95731.78;;;21.13;61.40
20624;BME280;10471;42.736;23.346;2023-05-06T09:43:51;95723.09;;;21.28;67.58
20624;BME280;10471;42.736;23.346;2023-05-06T09:46:18;95728.56;;;21.32;58.76
20624;BME280;10471;42.736;23.346;2023-05-06T09:48:44;95719.81;;;21.11;52.24
20624;BME280;10471;42.736;23.346;2023-05-06T09:51:10;95719.44;;;20.89;55.98
20624;BME280;10471;42.736;23.346;2023-05-06T09:53:36;95718.34;;;20.49;57.26
20624;BME280;10471;42.736;23.346;2023-05-06T09:56:06;95713.13;;;20.52;64.96
20624;BME280;10471;42.736;23.346;2023-05-06T09:58:33;95714.41;;;20.67;60.88
20624;BME280;10471;42.736;23.346;2023-05-06T10:00:59;95711.06;;;20.70;60.26
20624;BME280;10471;42.736;23.346;2023-05-06T10:03:25;95716.94;;;20.84;60.10
20624;BME280;10471;42.736;23.346;2023-05-06T10:05:55;95717.75;;;20.84;55.82
20624;BME280;10471;42.736;23.346;2023-05-06T10:08:22;95720.81;;;20.74;54.18
20624;BME280;10471;42.736;23.346;2023-05-06T10:10:48;95713.91;;;20.53;55.24
20624;BME280;10471;42.736;23.346;2023-05-06T10:13:14;95723.66;;;20.57;55.53
20624;BME280;10471;42.736;23.346;2023-05-06T10:15:41;95715.53;;;20.66;57.92
20624;BME280;10471;42.736;23.346;2023-05-06T10:18:08;95712.47;;;20.76;56.56
20624;BME280;10471;42.736;23.346;2023-05-06T10:20:35;95705.88;;;20.53;53.79
20624;BME280;10471;42.736;23.346;2023-05-06T10:23:03;95709.00;;;20.55;55.96
20624;BME280;10471;42.736;23.346;2023-05-06T10:25:37;95706.34;;;20.55;59.23
20624;BME280;10471;42.736;23.346;2023-05-06T10:28:05;95704.72;;;20.42;59.32
20624;BME280;10471;42.736;23.346;2023-05-06T10:30:33;95712.81;;;20.54;59.66
20624;BME280;10471;42.736;23.346;2023-05-06T10:33:03;95709.50;;;20.69;58.70
20624;BME280;10471;42.736;23.346;2023-05-06T10:38:21;95703.50;;;21.04;57.64
20624;BME280;10471;42.736;23.346;2023-05-06T10:40:47;95702.06;;;21.18;55.58
20624;BME280;10471;42.736;23.346;2023-05-06T10:43:31;95700.31;;;21.22;53.83
20624;BME280;10471;42.736;23.346;2023-05-06T10:46:06;95695.25;;;21.21;54.97
20624;BME280;10471;42.736;23.346;2023-05-06T10:48:37;95692.94;;;21.43;54.50
20624;BME280;10471;42.736;23.346;2023-05-06T10:56:22;95695.72;;;21.47;53.36
20624;BME280;10471;42.736;23.346;2023-05-06T10:58:48;95693.41;;;21.33;54.63
20624;BME280;10471;42.736;23.346;2023-05-06T11:01:13;95687.34;;;21.12;53.41
20624;BME280;10471;42.736;23.346;2023-05-06T11:03:42;95695.88;;;20.94;55.34
20624;BME280;10471;42.736;23.346;2023-05-06T11:06:08;95697.03;;;21.05;57.10
20624;BME280;10471;42.736;23.346;2023-05-06T11:08:33;95701.25;;;21.06;52.67
20624;BME280;10471;42.736;23.346;2023-05-06T11:10:59;95694.03;;;21.07;54.66
20624;BME280;10471;42.736;23.346;2023-05-06T11:15:52;95700.44;;;20.94;55.53
20624;BME280;10471;42.736;23.346;2023-05-06T11:26:16;95685.56;;;21.28;53.79
20624;BME280;10471;42.736;23.346;2023-05-06T11:28:44;95691.63;;;21.49;51.83
20624;BME280;10471;42.736;23.346;2023-05-06T11:31:10;95682.56;;;21.66;51.13
20624;BME280;10471;42.736;23.346;2023-05-06T11:33:44;95690.94;;;21.76;51.33
20624;BME280;10471;42.736;23.346;2023-05-06T11:36:18;95683.28;;;22.02;51.22
20624;BME280;10471;42.736;23.346;2023-05-06T11:38:45;95686.72;;;22.14;49.86
20624;BME280;10471;42.736;23.346;2023-05-06T11:41:12;95691.78;;;22.28;49.10
20624;BME280;10471;42.736;23.346;2023-05-06T11:43:38;95694.81;;;22.53;50.10
20624;BME280;10471;42.736;23.346;2023-05-06T11:46:03;95696.78;;;22.68;48.32
20624;BME280;10471;42.736;23.346;2023-05-06T11:48:29;95688.25;;;22.94;48.36
20624;BME280;10471;42.736;23.346;2023-05-06T11:50:54;95687.09;;;23.22;46.72
20624;BME280;10471;42.736;23.346;2023-05-06T11:53:21;95684.06;;;23.39;47.71
20624;BME280;10471;42.736;23.346;2023-05-06T11:55:48;95677.38;;;23.79;46.05
20624;BME280;10471;42.736;23.346;2023-05-06T11:58:17;95675.97;;;24.19;45.10
20624;BME280;10471;42.736;23.346;2023-05-06T12:00:55;95680.56;;;24.53;43.08
20624;BME280;10471;42.736;23.346;2023-05-06T12:03:22;95679.28;;;24.66;42.29
20624;BME280;10471;42.736;23.346;2023-05-06T12:05:49;95678.91;;;24.86;43.93
20624;BME280;10471;42.736;23.346;2023-05-06T12:08:16;95679.22;;;25.04;44.52
20624;BME280;10471;42.736;23.346;2023-05-06T12:10:45;95678.38;;;25.00;42.92
20624;BME280;10471;42.736;23.346;2023-05-06T12:13:11;95677.72;;;24.84;43.49
20624;BME280;10471;42.736;23.346;2023-05-06T12:15:36;95674.00;;;24.35;43.04
20624;BME280;10471;42.736;23.346;2023-05-06T12:18:03;95676.38;;;24.02;43.97
20624;BME280;10471;42.736;23.346;2023-05-06T12:20:30;95667.44;;;23.68;44.29
20624;BME280;10471;42.736;23.346;2023-05-06T12:23:13;95669.16;;;23.57;45.06
20624;BME280;10471;42.736;23.346;2023-05-06T12:25:39;95666.97;;;23.31;44.46
20624;BME280;10471;42.736;23.346;2023-05-06T12:28:15;95666.69;;;23.21;44.99
20624;BME280;10471;42.736;23.346;2023-05-06T12:30:41;95660.78;;;23.31;47.06
20624;BME280;10471;42.736;23.346;2023-05-06T12:33:07;95656.44;;;23.42;45.30
20624;BME280;10471;42.736;23.346;2023-05-06T12:35:33;95655.84;;;23.79;43.56
20624;BME280;10471;42.736;23.346;2023-05-06T12:38:17;95660.41;;;23.94;42.47
20624;BME280;10471;42.736;23.346;2023-05-06T12:40:46;95662.25;;;23.90;43.12
20624;BME280;10471;42.736;23.346;2023-05-06T12:43:16;95656.22;;;23.96;42.74
20624;BME280;10471;42.736;23.346;2023-05-06T12:45:42;95666.09;;;23.43;43.12
20624;BME280;10471;42.736;23.346;2023-05-06T12:48:14;95653.13;;;23.64;44.36
20624;BME280;10471;42.736;23.346;2023-05-06T12:50:41;95662.06;;;23.68;43.16
20624;BME280;10471;42.736;23.346;2023-05-06T12:53:09;95652.53;;;23.85;44.64
20624;BME280;10471;42.736;23.346;2023-05-06T12:55:36;95648.72;;;23.86;43.43
20624;BME280;10471;42.736;23.346;2023-05-06T12:58:02;95651.75;;;23.85;42.63
20624;BME280;10471;42.736;23.346;2023-05-06T13:00:28;95647.06;;;23.67;45.56
20624;BME280;10471;42.736;23.346;2023-05-06T13:02:54;95644.28;;;23.78;44.13
20624;BME280;10471;42.736;23.346;2023-05-06T13:05:20;95649.28;;;23.95;44.15
20624;BME280;10471;42.736;23.346;2023-05-06T13:07:45;95639.38;;;24.37;43.57
20624;BME280;10471;42.736;23.346;2023-05-06T13:10:10;95646.47;;;24.83;41.74
20624;BME280;10471;42.736;23.346;2023-05-06T13:12:36;95650.69;;;25.03;42.06